CheckWX is a tool to help pilots better visualize weather data.  It is not intended as a substitute for an official pre-flight weather briefing.

14:06:35 UTC

KEKX METAR
Addington Field Airport
Elizabethtown, Kentucky, USA
Current

12 mins ago

KEKX 201355Z AUTO 22004KT 10SM CLR 29/25 A3005 RMK AO2 T02850249
Observed
Jul-20 @ 13:55 UTC
Wind
  • 220° at 4 KTS
Visibility
10 SM
Flight Rules
VFR
Cloud Levels
  • Clear skies
Temperature
29°C / 84°F
Dewpoint
25°C / 77°F
Heat Index
34°C / 94°F
Humidity
79%
Altimeter
30.05" Hg
Pressure
1017.62 hPa
Previous

32 mins ago

KEKX 201335Z AUTO 24005KT 10SM CLR 28/25 A3005 RMK AO2 T02780248
Observed
Jul-20 @ 13:35 UTC
Wind
  • 240° at 5 KTS
Visibility
10 SM
Flight Rules
VFR
Cloud Levels
  • Clear skies
Temperature
28°C / 82°F
Dewpoint
25°C / 77°F
Heat Index
32°C / 90°F
Humidity
84%
Altimeter
30.05" Hg
Pressure
1017.62 hPa
Previous

52 mins ago

KEKX 201315Z AUTO 22004KT 10SM SCT031 27/25 A3006 RMK AO2 T02700247
Observed
Jul-20 @ 13:15 UTC
Wind
  • 220° at 4 KTS
Visibility
10 SM
Flight Rules
VFR
Cloud Levels
  • Scattered at 3,100' AGL
Temperature
27°C / 81°F
Dewpoint
25°C / 77°F
Heat Index
31°C / 88°F
Humidity
89%
Altimeter
30.06" Hg
Pressure
1017.92 hPa